Time;durP1;ratioP1;P1;durP2;ratioP2;P2;SDS_P1;SDS_P2;PMS_P1;PMS_P2;Temp;Humidity;BMP_temperature;BMP_pressure;BME280_temperature;BME280_humidity;BME280_pressure;Samples;Min_cycle;Max_cycle;Signal;HPM_P1;HPM_P2
2021/04/21 00:01:39;;;;;;;;;;;19.20;55.50;;;;;;5023009;28;20570;-67
2021/04/21 00:04:05;;;;;;;;;;;19.20;55.50;;;;;;5021053;28;19921;-66
2021/04/21 00:06:31;;;;;;;;;;;19.20;56.10;;;;;;5026276;28;19917;-67
2021/04/21 00:08:56;;;;;;;;;;;19.20;55.50;;;;;;5026094;28;19917;-66
2021/04/21 00:11:22;;;;;;;;;;;19.20;55.50;;;;;;5025311;28;19914;-66
2021/04/21 00:13:47;;;;;;;;;;;19.20;55.50;;;;;;5025003;28;19933;-66
2021/04/21 00:16:13;;;;;;;;;;;19.20;55.40;;;;;;5038637;28;19944;-64
2021/04/21 00:18:39;;;;;;;;;;;19.20;55.40;;;;;;5027399;28;19967;-65
2021/04/21 00:21:05;;;;;;;;;;;19.20;55.30;;;;;;5045282;28;19916;-66
2021/04/21 00:23:31;;;;;;;;;;;19.20;55.40;;;;;;5026940;28;20516;-66
2021/04/21 00:25:57;;;;;;;;;;;19.10;55.30;;;;;;5027668;28;19917;-65
2021/04/21 00:28:23;;;;;;;;;;;19.20;55.40;;;;;;5027278;28;19927;-66
2021/04/21 00:30:49;;;;;;;;;;;19.20;55.30;;;;;;5045277;28;20012;-66
2021/04/21 00:33:15;;;;;;;;;;;19.20;55.30;;;;;;5027852;28;20003;-66
2021/04/21 00:35:41;;;;;;;;;;;19.20;55.30;;;;;;5028246;28;19924;-66
2021/04/21 00:38:08;;;;;;;;;;;19.20;55.20;;;;;;5028296;28;20470;-66
2021/04/21 00:40:36;;;;;;;;;;;19.20;55.50;;;;;;5027670;28;19924;-67
2021/04/21 00:43:14;;;;;;;;;;;19.10;55.20;;;;;;5028261;28;19992;-67
2021/04/21 00:45:42;;;;;;;;;;;19.20;55.20;;;;;;5028450;28;19952;-66
2021/04/21 00:48:07;;;;;;;;;;;19.20;55.20;;;;;;5028383;28;19917;-66
2021/04/21 00:50:51;;;;;;;;;;;19.20;55.20;;;;;;5027571;28;19947;-64
2021/04/21 00:53:19;;;;;;;;;;;19.10;55.20;;;;;;5045718;28;19913;-66
2021/04/21 00:56:03;;;;;;;;;;;19.20;55.20;;;;;;5028002;28;19970;-66
2021/04/21 00:58:32;;;;;;;;;;;19.20;55.20;;;;;;5045676;28;20007;-66
2021/04/21 01:00:57;;;;;;;;;;;19.20;55.20;;;;;;5028519;28;19912;-66
2021/04/21 01:03:24;;;;;;;;;;;19.10;55.10;;;;;;5045214;28;21831;-66
2021/04/21 01:05:55;;;;;;;;;;;19.20;55.10;;;;;;5045317;28;20121;-65
2021/04/21 01:08:22;;;;;;;;;;;19.20;55.10;;;;;;5027502;28;19923;-66
2021/04/21 01:10:48;;;;;;;;;;;19.10;55.10;;;;;;5044899;28;19917;-66
2021/04/21 01:13:14;;;;;;;;;;;19.20;55.10;;;;;;5027785;28;19974;-65
2021/04/21 01:15:39;;;;;;;;;;;19.20;55.10;;;;;;5026752;28;19921;-66
2021/04/21 01:18:05;;;;;;;;;;;19.20;55.10;;;;;;5027616;28;20511;-66
2021/04/21 01:20:34;;;;;;;;;;;19.20;55.10;;;;;;5044637;28;19913;-66
2021/04/21 01:23:15;;;;;;;;;;;19.20;55.10;;;;;;5027925;28;19941;-66
2021/04/21 01:25:59;;;;;;;;;;;19.20;55.00;;;;;;5045274;28;20134;-66
2021/04/21 01:28:24;;;;;;;;;;;19.10;54.90;;;;;;5045317;28;19917;-65
2021/04/21 01:30:50;;;;;;;;;;;19.10;55.00;;;;;;5029218;28;19944;-66
2021/04/21 01:33:16;;;;;;;;;;;19.10;55.00;;;;;;5028189;28;19917;-66
2021/04/21 01:35:42;;;;;;;;;;;19.20;55.00;;;;;;5027194;28;19920;-66
2021/04/21 01:38:08;;;;;;;;;;;19.10;54.90;;;;;;5045272;28;19970;-66
2021/04/21 01:40:37;;;;;;;;;;;19.10;54.90;;;;;;5044731;28;19924;-66
2021/04/21 01:43:09;;;;;;;;;;;19.20;54.90;;;;;;5027042;28;19939;-66
2021/04/21 01:45:35;;;;;;;;;;;19.20;54.90;;;;;;5026750;28;20458;-64
2021/04/21 01:48:01;;;;;;;;;;;19.10;54.80;;;;;;5044936;28;19916;-66
2021/04/21 01:50:27;;;;;;;;;;;19.10;54.90;;;;;;5044516;28;19913;-66
2021/04/21 01:53:12;;;;;;;;;;;19.20;54.90;;;;;;5044829;28;20403;-66
2021/04/21 01:55:44;;;;;;;;;;;19.20;54.90;;;;;;5032939;28;19996;-65
2021/04/21 01:58:30;;;;;;;;;;;19.10;54.80;;;;;;5044750;28;20326;-64
2021/04/21 02:00:59;;;;;;;;;;;19.20;54.90;;;;;;5026862;28;19947;-65
2021/04/21 02:03:29;;;;;;;;;;;19.10;54.80;;;;;;5026272;28;21764;-65
2021/04/21 02:05:55;;;;;;;;;;;19.10;54.80;;;;;;5026662;28;19912;-66
2021/04/21 02:08:20;;;;;;;;;;;19.10;54.80;;;;;;5044439;28;19974;-66
2021/04/21 02:11:05;;;;;;;;;;;19.10;54.90;;;;;;5044149;28;20718;-65
2021/04/21 02:13:41;;;;;;;;;;;19.20;54.90;;;;;;5044427;28;19913;-66
2021/04/21 02:16:06;;;;;;;;;;;19.20;54.90;;;;;;5026610;28;19917;-66
2021/04/21 02:18:40;;;;;;;;;;;19.10;54.80;;;;;;5044178;28;19913;-66
2021/04/21 02:21:12;;;;;;;;;;;19.10;54.80;;;;;;5025884;28;20578;-66
2021/04/21 02:23:44;;;;;;;;;;;19.10;54.80;;;;;;5026346;28;19912;-66
2021/04/21 02:26:22;;;;;;;;;;;19.10;54.80;;;;;;5044388;28;19916;-65
2021/04/21 02:28:47;;;;;;;;;;;19.10;54.80;;;;;;5025564;28;19956;-66
2021/04/21 02:31:16;;;;;;;;;;;19.10;54.80;;;;;;5025704;28;19967;-66
2021/04/21 02:33:43;;;;;;;;;;;19.10;54.80;;;;;;5043791;28;19917;-66
2021/04/21 02:36:10;;;;;;;;;;;19.10;54.80;;;;;;5044069;28;19920;-66
2021/04/21 02:38:54;;;;;;;;;;;19.10;54.80;;;;;;5043871;28;19913;-66
2021/04/21 02:41:39;;;;;;;;;;;19.10;54.80;;;;;;5043218;28;20003;-66
2021/04/21 02:44:20;;;;;;;;;;;19.10;54.80;;;;;;5043377;28;20402;-66
2021/04/21 02:46:51;;;;;;;;;;;19.10;54.80;;;;;;5043762;28;19913;-66
2021/04/21 02:49:28;;;;;;;;;;;19.10;54.80;;;;;;5043751;28;19920;-66
2021/04/21 02:51:58;;;;;;;;;;;19.20;54.80;;;;;;5026108;28;20761;-66
2021/04/21 02:54:29;;;;;;;;;;;19.10;54.70;;;;;;5024665;28;19924;-65
2021/04/21 02:56:56;;;;;;;;;;;19.10;54.60;;;;;;5025565;28;20482;-66
2021/04/21 02:59:28;;;;;;;;;;;19.20;54.70;;;;;;5025245;28;19966;-65
2021/04/21 03:01:59;;;;;;;;;;;19.10;54.70;;;;;;5043352;28;20592;-66
2021/04/21 03:04:25;;;;;;;;;;;19.10;54.70;;;;;;5025294;28;20410;-65
2021/04/21 03:06:50;;;;;;;;;;;19.10;54.80;;;;;;5025206;28;20435;-65
2021/04/21 03:09:21;;;;;;;;;;;19.10;54.80;;;;;;5043262;28;19927;-65
2021/04/21 03:11:46;;;;;;;;;;;19.10;54.80;;;;;;5025087;28;19944;-66
2021/04/21 03:14:17;;;;;;;;;;;19.10;54.70;;;;;;5025423;28;20015;-66
2021/04/21 03:16:43;;;;;;;;;;;19.10;54.70;;;;;;5025675;28;20687;-65
2021/04/21 03:19:10;;;;;;;;;;;19.10;54.60;;;;;;5043409;28;19913;-65
2021/04/21 03:21:36;;;;;;;;;;;19.10;54.60;;;;;;5025478;28;19913;-67
2021/04/21 03:24:04;;;;;;;;;;;19.10;54.70;;;;;;5043380;28;19952;-67
2021/04/21 03:26:29;;;;;;;;;;;19.10;54.70;;;;;;5025903;28;19917;-66
2021/04/21 03:28:56;;;;;;;;;;;19.10;54.70;;;;;;5025994;28;20410;-66
2021/04/21 03:31:22;;;;;;;;;;;19.10;54.70;;;;;;5043246;28;19921;-66
2021/04/21 03:33:48;;;;;;;;;;;19.10;54.70;;;;;;5026033;28;19945;-66
2021/04/21 03:36:14;;;;;;;;;;;19.10;54.70;;;;;;5025737;28;19944;-66
2021/04/21 03:38:40;;;;;;;;;;;19.10;54.70;;;;;;5043883;28;20302;-66
2021/04/21 03:41:05;;;;;;;;;;;19.10;54.60;;;;;;5047100;28;19920;-66
2021/04/21 03:43:31;;;;;;;;;;;19.10;54.60;;;;;;5029801;28;19913;-66
2021/04/21 03:45:56;;;;;;;;;;;19.10;54.60;;;;;;5029997;28;19920;-64
2021/04/21 03:48:22;;;;;;;;;;;19.10;54.70;;;;;;5029980;28;20281;-66
2021/04/21 03:50:50;;;;;;;;;;;19.10;54.70;;;;;;5028878;28;19917;-66
2021/04/21 03:53:15;;;;;;;;;;;19.10;54.70;;;;;;5029558;28;19917;-66
2021/04/21 03:55:41;;;;;;;;;;;19.10;54.60;;;;;;5028764;28;19913;-66
2021/04/21 03:58:07;;;;;;;;;;;19.10;54.60;;;;;;5046793;28;19917;-66
2021/04/21 04:00:33;;;;;;;;;;;19.10;54.60;;;;;;5046557;28;19997;-66
2021/04/21 04:02:59;;;;;;;;;;;19.10;54.60;;;;;;5047245;28;19917;-66
2021/04/21 04:05:26;;;;;;;;;;;19.10;54.60;;;;;;5029256;28;19920;-66
2021/04/21 04:07:51;;;;;;;;;;;19.10;54.60;;;;;;5028941;28;19920;-66
2021/04/21 04:10:17;;;;;;;;;;;19.10;54.60;;;;;;5028471;28;19920;-67
2021/04/21 04:12:43;;;;;;;;;;;19.10;54.60;;;;;;5046988;28;19920;-67
2021/04/21 04:15:09;;;;;;;;;;;19.10;54.60;;;;;;5046305;28;20364;-65
2021/04/21 04:17:34;;;;;;;;;;;19.10;54.50;;;;;;5046490;28;19944;-67
2021/04/21 04:20:00;;;;;;;;;;;19.10;54.50;;;;;;5046455;28;19919;-67
2021/04/21 04:22:25;;;;;;;;;;;19.10;54.50;;;;;;5047498;28;20315;-64
2021/04/21 04:24:54;;;;;;;;;;;19.10;54.50;;;;;;5028722;28;19919;-67
2021/04/21 04:27:20;;;;;;;;;;;19.10;54.40;;;;;;5046610;28;19913;-64
2021/04/21 04:29:45;;;;;;;;;;;19.10;54.50;;;;;;5028003;28;20002;-66
2021/04/21 04:32:11;;;;;;;;;;;19.10;54.50;;;;;;5046324;28;20415;-65
2021/04/21 04:34:37;;;;;;;;;;;19.10;54.60;;;;;;5046987;28;19966;-67
2021/04/21 04:37:02;;;;;;;;;;;19.10;54.60;;;;;;5028924;28;19921;-66
2021/04/21 04:39:28;;;;;;;;;;;19.10;54.50;;;;;;5028289;28;20072;-68
2021/04/21 04:41:53;;;;;;;;;;;19.10;54.50;;;;;;5027953;28;20383;-70
2021/04/21 04:44:18;;;;;;;;;;;19.10;54.50;;;;;;5046437;28;19913;-66
2021/04/21 04:46:46;;;;;;;;;;;19.20;54.60;;;;;;5027723;28;19913;-68
2021/04/21 04:49:12;;;;;;;;;;;19.10;54.50;;;;;;5028172;28;19917;-66
2021/04/21 04:51:38;;;;;;;;;;;19.10;54.80;;;;;;5027058;28;19992;-67
2021/04/21 04:54:04;;;;;;;;;;;19.20;54.90;;;;;;5047169;28;20008;-68
2021/04/21 04:56:33;;;;;;;;;;;19.20;55.00;;;;;;5045321;28;19983;-62
2021/04/21 04:58:58;;;;;;;;;;;19.20;55.10;;;;;;5025763;28;20007;-63
2021/04/21 05:01:24;;;;;;;;;;;19.20;55.10;;;;;;5043567;28;19927;-66
2021/04/21 05:03:52;;;;;;;;;;;19.20;55.00;;;;;;5025569;28;19917;-61
2021/04/21 05:06:19;;;;;;;;;;;19.20;54.90;;;;;;5024621;28;19913;-61
2021/04/21 05:08:46;;;;;;;;;;;19.20;54.70;;;;;;5024569;28;20002;-65
2021/04/21 05:11:12;;;;;;;;;;;19.30;54.60;;;;;;5024130;28;20300;-63
2021/04/21 05:13:38;;;;;;;;;;;19.30;54.50;;;;;;5042435;28;20528;-61
2021/04/21 05:16:04;;;;;;;;;;;19.30;54.40;;;;;;5041623;28;19917;-67
2021/04/21 05:18:29;;;;;;;;;;;19.30;54.20;;;;;;5043884;28;20537;-63
2021/04/21 05:21:07;;;;;;;;;;;19.30;54.20;;;;;;5042624;28;19913;-63
2021/04/21 05:23:51;;;;;;;;;;;19.30;54.10;;;;;;5044077;28;20375;-58
2021/04/21 05:26:35;;;;;;;;;;;19.30;54.50;;;;;;5055253;28;19917;-61
2021/04/21 05:29:18;;;;;;;;;;;19.30;54.40;;;;;;5064831;28;19955;-64
2021/04/21 05:31:58;;;;;;;;;;;19.30;54.20;;;;;;5044960;28;19931;-67
2021/04/21 05:34:44;;;;;;;;;;;19.30;54.20;;;;;;5037548;28;20012;-67
2021/04/21 05:37:22;;;;;;;;;;;19.30;55.10;;;;;;5027017;28;20758;-66
2021/04/21 05:39:47;;;;;;;;;;;19.30;55.50;;;;;;5026800;28;20622;-68
2021/04/21 05:42:16;;;;;;;;;;;19.30;55.80;;;;;;5026753;28;19924;-68
2021/04/21 05:45:00;;;;;;;;;;;19.30;55.80;;;;;;5026452;28;19939;-68
2021/04/21 05:47:34;;;;;;;;;;;19.30;56.00;;;;;;5025636;28;20065;-65
2021/04/21 05:49:59;;;;;;;;;;;19.30;56.00;;;;;;5024082;28;19917;-66
2021/04/21 05:52:31;;;;;;;;;;;19.30;56.00;;;;;;5025380;28;19920;-66
2021/04/21 05:55:19;;;;;;;;;;;19.30;56.20;;;;;;5025068;28;19917;-67
2021/04/21 05:58:03;;;;;;;;;;;19.30;56.30;;;;;;5023933;28;19924;-67
2021/04/21 06:00:47;;;;;;;;;;;19.30;56.20;;;;;;5024088;28;19917;-67
2021/04/21 06:03:12;;;;;;;;;;;19.30;56.30;;;;;;5023400;28;20748;-66
2021/04/21 06:05:38;;;;;;;;;;;19.30;56.20;;;;;;5024788;28;19913;-65
2021/04/21 06:08:10;;;;;;;;;;;19.30;56.20;;;;;;5024846;28;20305;-65
2021/04/21 06:10:36;;;;;;;;;;;19.40;56.10;;;;;;5024056;28;19917;-66
2021/04/21 06:13:02;;;;;;;;;;;19.40;55.90;;;;;;5024790;28;19913;-67
2021/04/21 06:15:28;;;;;;;;;;;19.40;55.90;;;;;;5023760;28;19913;-67
2021/04/21 06:17:55;;;;;;;;;;;19.40;55.70;;;;;;5023693;28;19952;-68
2021/04/21 06:20:30;;;;;;;;;;;19.40;55.50;;;;;;5023686;28;20431;-67
2021/04/21 06:22:59;;;;;;;;;;;19.40;55.30;;;;;;5024165;28;19924;-67
2021/04/21 06:25:24;;;;;;;;;;;19.40;55.20;;;;;;5034236;28;21315;-67
2021/04/21 06:27:50;;;;;;;;;;;19.40;55.10;;;;;;5044037;28;19920;-66
2021/04/21 06:30:15;;;;;;;;;;;19.40;55.20;;;;;;5025812;28;20010;-66
2021/04/21 06:32:41;;;;;;;;;;;19.40;55.20;;;;;;5026369;28;20038;-66
2021/04/21 06:35:10;;;;;;;;;;;19.40;55.20;;;;;;5026463;28;19917;-66
2021/04/21 06:37:35;;;;;;;;;;;19.40;55.10;;;;;;5044566;28;19913;-66
2021/04/21 06:40:02;;;;;;;;;;;19.40;55.10;;;;;;5044214;28;19924;-66
2021/04/21 06:42:27;;;;;;;;;;;19.40;55.10;;;;;;5026819;28;20411;-67
2021/04/21 06:44:53;;;;;;;;;;;19.40;55.10;;;;;;5026317;28;19920;-66
2021/04/21 06:47:20;;;;;;;;;;;19.40;55.00;;;;;;5044555;28;20298;-66
2021/04/21 06:49:45;;;;;;;;;;;19.40;55.00;;;;;;5043873;28;19956;-65
2021/04/21 06:52:11;;;;;;;;;;;19.40;54.90;;;;;;5027127;28;20001;-65
2021/04/21 06:54:37;;;;;;;;;;;19.40;54.80;;;;;;5027253;28;20449;-67
2021/04/21 06:57:02;;;;;;;;;;;19.40;54.80;;;;;;5026892;28;19924;-65
2021/04/21 06:59:28;;;;;;;;;;;19.40;54.70;;;;;;5044131;28;20338;-65
2021/04/21 07:01:53;;;;;;;;;;;19.40;54.60;;;;;;5044551;28;19917;-66
2021/04/21 07:04:19;;;;;;;;;;;19.40;54.60;;;;;;5044562;28;20024;-66
2021/04/21 07:06:44;;;;;;;;;;;19.30;54.60;;;;;;5045095;28;20398;-65
2021/04/21 07:09:14;;;;;;;;;;;19.30;54.60;;;;;;5027052;28;19947;-65
2021/04/21 07:11:39;;;;;;;;;;;19.30;54.50;;;;;;5044009;28;19913;-68
2021/04/21 07:14:05;;;;;;;;;;;19.30;54.40;;;;;;5046815;28;19967;-65
2021/04/21 07:16:30;;;;;;;;;;;19.30;54.40;;;;;;5050438;28;19917;-65
2021/04/21 07:19:00;;;;;;;;;;;19.30;54.30;;;;;;5032657;28;19913;-65
2021/04/21 07:21:25;;;;;;;;;;;19.30;54.20;;;;;;5050424;28;19959;-65
2021/04/21 07:23:52;;;;;;;;;;;19.30;54.20;;;;;;5032607;28;19913;-64
2021/04/21 07:26:18;;;;;;;;;;;19.30;54.10;;;;;;5033168;28;19913;-64
2021/04/21 07:28:43;;;;;;;;;;;19.40;54.10;;;;;;5032815;28;19920;-65
2021/04/21 07:31:09;;;;;;;;;;;19.40;54.10;;;;;;5032683;28;20363;-66
2021/04/21 07:33:44;;;;;;;;;;;19.30;54.00;;;;;;5050113;28;19948;-66
2021/04/21 07:36:17;;;;;;;;;;;19.30;53.90;;;;;;5051340;28;19952;-66
2021/04/21 07:38:43;;;;;;;;;;;19.30;53.80;;;;;;5032479;28;19913;-64
2021/04/21 07:41:09;;;;;;;;;;;19.40;54.00;;;;;;5050270;28;19928;-67
2021/04/21 07:43:38;;;;;;;;;;;19.30;53.90;;;;;;5051308;28;19917;-66
2021/04/21 07:46:04;;;;;;;;;;;19.30;53.80;;;;;;5050163;28;20084;-66
2021/04/21 07:48:32;;;;;;;;;;;19.30;53.80;;;;;;5050875;28;20431;-65
2021/04/21 07:50:57;;;;;;;;;;;19.30;53.80;;;;;;5049689;28;19912;-66
2021/04/21 07:53:23;;;;;;;;;;;19.30;53.80;;;;;;5032670;28;20676;-66
2021/04/21 07:55:49;;;;;;;;;;;19.30;53.80;;;;;;5049528;28;19913;-66
2021/04/21 07:58:21;;;;;;;;;;;19.30;53.80;;;;;;5050813;28;20327;-66
2021/04/21 08:00:47;;;;;;;;;;;19.30;54.40;;;;;;5050393;28;19920;-66
2021/04/21 08:03:21;;;;;;;;;;;19.30;54.70;;;;;;5051202;28;19917;-67
2021/04/21 08:05:50;;;;;;;;;;;19.30;54.60;;;;;;5051556;28;19932;-66
2021/04/21 08:08:16;;;;;;;;;;;19.30;54.50;;;;;;5052201;28;20491;-66
2021/04/21 08:10:47;;;;;;;;;;;19.30;54.30;;;;;;5034612;28;19919;-67
2021/04/21 08:13:12;;;;;;;;;;;19.30;54.30;;;;;;5037743;28;19959;-65
2021/04/21 08:15:39;;;;;;;;;;;19.30;54.70;;;;;;5016828;28;19913;-70
2021/04/21 08:18:14;;;;;;;;;;;19.30;54.90;;;;;;5050404;28;19921;-69
2021/04/21 08:20:50;;;;;;;;;;;19.30;55.00;;;;;;5032261;28;20352;-67
2021/04/21 08:23:16;;;;;;;;;;;19.30;55.30;;;;;;5050703;28;19913;-66
2021/04/21 08:25:42;;;;;;;;;;;19.30;55.40;;;;;;5029379;28;20283;-66
2021/04/21 08:28:07;;;;;;;;;;;19.30;55.40;;;;;;5047535;28;19921;-67
2021/04/21 08:30:32;;;;;;;;;;;19.30;55.40;;;;;;5046496;28;19921;-67
2021/04/21 08:32:58;;;;;;;;;;;19.30;55.30;;;;;;5046829;28;19924;-68
2021/04/21 08:35:23;;;;;;;;;;;19.30;55.30;;;;;;5046410;28;19917;-67
2021/04/21 08:37:49;;;;;;;;;;;19.30;55.30;;;;;;5046895;28;19996;-66
2021/04/21 08:40:15;;;;;;;;;;;19.30;55.20;;;;;;5045438;28;20044;-67
2021/04/21 08:42:44;;;;;;;;;;;19.30;55.20;;;;;;5046894;28;19952;-67
2021/04/21 08:45:10;;;;;;;;;;;19.30;55.20;;;;;;5045917;28;19921;-67
2021/04/21 08:47:35;;;;;;;;;;;19.30;55.20;;;;;;5047378;28;19924;-66
2021/04/21 08:50:01;;;;;;;;;;;19.30;55.20;;;;;;5028677;28;19978;-66
2021/04/21 08:52:29;;;;;;;;;;;19.30;55.20;;;;;;5029222;28;19921;-65
2021/04/21 08:54:54;;;;;;;;;;;19.30;55.20;;;;;;5046569;28;20337;-66
2021/04/21 08:57:20;;;;;;;;;;;19.30;55.20;;;;;;5029162;28;19987;-66
2021/04/21 08:59:46;;;;;;;;;;;19.30;55.10;;;;;;5046161;28;19920;-66
2021/04/21 09:02:12;;;;;;;;;;;19.30;55.20;;;;;;5046061;28;19913;-65
2021/04/21 09:04:37;;;;;;;;;;;19.30;55.10;;;;;;5046329;28;19994;-66
2021/04/21 09:07:03;;;;;;;;;;;19.30;55.10;;;;;;5046107;28;20562;-68
2021/04/21 09:09:31;;;;;;;;;;;19.30;55.10;;;;;;5027770;28;19916;-67
2021/04/21 09:11:56;;;;;;;;;;;19.30;55.10;;;;;;5046457;28;19974;-67
2021/04/21 09:14:22;;;;;;;;;;;19.30;55.10;;;;;;5045693;28;19916;-67
2021/04/21 09:16:47;;;;;;;;;;;19.30;55.10;;;;;;5046035;28;19917;-67
2021/04/21 09:19:14;;;;;;;;;;;19.30;55.10;;;;;;5045505;28;20380;-67
2021/04/21 09:21:39;;;;;;;;;;;19.30;55.10;;;;;;5029189;28;20272;-66
2021/04/21 09:24:09;;;;;;;;;;;19.30;55.10;;;;;;5046100;28;19916;-66
2021/04/21 09:26:36;;;;;;;;;;;19.30;55.10;;;;;;5045926;28;19924;-67
2021/04/21 09:29:02;;;;;;;;;;;19.30;55.10;;;;;;5046522;28;19917;-67
2021/04/21 09:31:28;;;;;;;;;;;19.30;55.10;;;;;;5028347;28;19935;-67
2021/04/21 09:34:12;;;;;;;;;;;19.30;55.20;;;;;;5029374;28;19958;-67
2021/04/21 09:36:39;;;;;;;;;;;19.30;55.20;;;;;;5045793;28;19953;-68
2021/04/21 09:39:17;;;;;;;;;;;19.30;55.20;;;;;;5045320;28;19916;-66
2021/04/21 09:41:43;;;;;;;;;;;19.30;55.10;;;;;;5027102;28;19913;-68
2021/04/21 09:44:30;;;;;;;;;;;19.30;55.10;;;;;;5027122;28;19966;-67
2021/04/21 09:46:57;;;;;;;;;;;19.30;55.10;;;;;;5026671;28;19935;-66
2021/04/21 09:49:35;;;;;;;;;;;19.30;55.10;;;;;;5044289;28;20441;-64
2021/04/21 09:52:02;;;;;;;;;;;19.30;55.10;;;;;;5043929;28;19931;-66
2021/04/21 09:54:31;;;;;;;;;;;19.30;55.10;;;;;;5044725;28;20388;-67
2021/04/21 09:57:27;;;;;;;;;;;19.30;55.10;;;;;;5045304;28;19917;-67
2021/04/21 10:00:18;;;;;;;;;;;19.30;55.10;;;;;;5019818;28;19913;-67
2021/04/21 10:02:44;;;;;;;;;;;19.30;54.90;;;;;;5039534;28;19917;-67
2021/04/21 10:05:22;;;;;;;;;;;19.40;54.90;;;;;;5045313;28;19916;-67
2021/04/21 10:07:47;;;;;;;;;;;19.30;55.00;;;;;;5044695;28;20004;-67
2021/04/21 10:10:13;;;;;;;;;;;19.30;55.10;;;;;;5042358;28;20365;-65
2021/04/21 10:12:39;;;;;;;;;;;19.30;55.00;;;;;;5027890;28;19924;-66
2021/04/21 10:15:09;;;;;;;;;;;19.30;55.00;;;;;;5044932;28;19923;-67
2021/04/21 10:17:39;;;;;;;;;;;19.30;55.00;;;;;;5045424;28;19912;-67
2021/04/21 10:20:05;;;;;;;;;;;19.30;55.00;;;;;;5043642;28;20383;-66
2021/04/21 10:22:31;;;;;;;;;;;19.30;55.00;;;;;;5045120;28;20690;-67
2021/04/21 10:24:56;;;;;;;;;;;19.30;54.90;;;;;;5027190;28;19913;-68
2021/04/21 10:27:22;;;;;;;;;;;19.40;54.90;;;;;;5026746;28;20699;-67
2021/04/21 10:29:47;;;;;;;;;;;19.30;54.80;;;;;;5026718;28;19924;-67
2021/04/21 10:32:16;;;;;;;;;;;19.30;54.80;;;;;;5043893;28;19979;-67
2021/04/21 10:34:45;;;;;;;;;;;19.30;54.90;;;;;;5026426;28;19920;-66
2021/04/21 10:37:11;;;;;;;;;;;19.30;54.80;;;;;;5043866;28;20372;-67
2021/04/21 10:39:36;;;;;;;;;;;19.30;54.80;;;;;;5026227;28;19920;-67
2021/04/21 10:42:02;;;;;;;;;;;19.40;54.90;;;;;;5044140;28;19919;-68
2021/04/21 10:44:31;;;;;;;;;;;19.30;54.90;;;;;;5045279;28;19982;-68
2021/04/21 10:46:57;;;;;;;;;;;19.30;54.90;;;;;;5026873;28;20291;-67
2021/04/21 10:49:42;;;;;;;;;;;19.30;54.90;;;;;;5045847;28;19928;-67
2021/04/21 10:52:10;;;;;;;;;;;19.30;54.90;;;;;;5049093;28;19920;-68
2021/04/21 10:54:35;;;;;;;;;;;19.30;54.90;;;;;;5026475;28;19917;-68
2021/04/21 10:57:19;;;;;;;;;;;19.30;54.90;;;;;;5026065;28;19955;-68
2021/04/21 11:00:04;;;;;;;;;;;19.30;55.00;;;;;;5043727;28;19913;-68
2021/04/21 11:02:45;;;;;;;;;;;19.30;55.00;;;;;;5043690;28;19992;-68
2021/04/21 11:05:11;;;;;;;;;;;19.30;55.00;;;;;;5043292;28;19920;-68
2021/04/21 11:07:37;;;;;;;;;;;19.30;54.90;;;;;;5025910;28;19952;-68
2021/04/21 11:10:03;;;;;;;;;;;19.30;54.90;;;;;;5043393;28;19948;-65
2021/04/21 11:12:47;;;;;;;;;;;19.30;54.80;;;;;;5043863;28;19916;-67
2021/04/21 11:15:13;;;;;;;;;;;19.30;54.70;;;;;;5042754;28;19917;-68
2021/04/21 11:17:57;;;;;;;;;;;19.30;54.60;;;;;;5025329;28;19924;-67
2021/04/21 11:20:52;;;;;;;;;;;19.30;54.80;;;;;;5043113;28;19917;-67
2021/04/21 11:23:36;;;;;;;;;;;19.30;54.00;;;;;;5020403;28;19913;-67
2021/04/21 11:26:25;;;;;;;;;;;19.30;53.80;;;;;;5043234;28;19920;-66
2021/04/21 11:29:07;;;;;;;;;;;19.30;53.90;;;;;;5043474;28;19948;-66
2021/04/21 11:31:42;;;;;;;;;;;19.30;54.10;;;;;;5042554;28;19925;-68
2021/04/21 11:34:13;;;;;;;;;;;19.30;54.10;;;;;;5041499;28;19988;-67
2021/04/21 11:36:49;;;;;;;;;;;19.30;54.30;;;;;;5043255;28;20021;-67
2021/04/21 11:39:15;;;;;;;;;;;19.30;54.30;;;;;;5043109;28;20382;-66
2021/04/21 11:41:44;;;;;;;;;;;19.30;54.20;;;;;;5043651;28;20004;-67
2021/04/21 11:44:09;;;;;;;;;;;19.30;54.50;;;;;;5043151;28;20333;-64
2021/04/21 11:46:54;;;;;;;;;;;19.30;54.70;;;;;;5043156;28;20010;-66
2021/04/21 11:49:38;;;;;;;;;;;19.30;54.80;;;;;;5043475;28;19921;-65
2021/04/21 11:52:03;;;;;;;;;;;19.30;54.70;;;;;;5044656;28;19913;-66
2021/04/21 11:54:29;;;;;;;;;;;19.20;54.90;;;;;;5044581;28;19951;-68
2021/04/21 11:56:57;;;;;;;;;;;19.30;54.70;;;;;;5027617;28;19917;-67
2021/04/21 11:59:22;;;;;;;;;;;19.30;54.60;;;;;;5044298;28;19913;-65
2021/04/21 12:01:47;;;;;;;;;;;19.30;54.30;;;;;;5029749;28;19913;-66
2021/04/21 12:04:14;;;;;;;;;;;19.30;54.00;;;;;;5025621;28;19912;-66
2021/04/21 12:06:40;;;;;;;;;;;19.30;53.70;;;;;;5029635;28;19913;-66
2021/04/21 12:09:05;;;;;;;;;;;19.30;53.60;;;;;;5029907;28;19947;-65
2021/04/21 12:11:34;;;;;;;;;;;19.30;53.30;;;;;;5029298;28;19913;-66
2021/04/21 12:14:00;;;;;;;;;;;19.30;53.00;;;;;;5045749;28;20272;-66
2021/04/21 12:16:28;;;;;;;;;;;19.30;52.90;;;;;;5058694;28;19923;-66
2021/04/21 12:18:58;;;;;;;;;;;19.30;52.70;;;;;;5027650;28;20294;-66
2021/04/21 12:21:30;;;;;;;;;;;19.40;52.70;;;;;;5009434;28;20690;-67
2021/04/21 12:23:59;;;;;;;;;;;19.30;52.30;;;;;;5027251;28;19988;-65
2021/04/21 12:26:26;;;;;;;;;;;19.40;52.10;;;;;;5026894;28;19917;-65
2021/04/21 12:28:54;;;;;;;;;;;19.30;52.10;;;;;;5026846;28;21189;-66
2021/04/21 12:31:23;;;;;;;;;;;19.30;51.80;;;;;;5026415;28;20390;-66
2021/04/21 12:33:48;;;;;;;;;;;19.40;51.60;;;;;;5027214;28;19921;-66
2021/04/21 12:36:14;;;;;;;;;;;19.30;51.40;;;;;;5026667;28;19913;-66
2021/04/21 12:38:39;;;;;;;;;;;19.40;51.30;;;;;;5008907;28;19913;-65
2021/04/21 12:41:06;;;;;;;;;;;19.40;51.30;;;;;;5027030;28;19940;-65
2021/04/21 12:43:32;;;;;;;;;;;19.40;51.40;;;;;;5026801;28;19917;-66
2021/04/21 12:46:09;;;;;;;;;;;19.40;51.40;;;;;;5026501;28;19920;-66
2021/04/21 12:48:35;;;;;;;;;;;19.30;51.20;;;;;;5026726;28;20010;-66
2021/04/21 12:51:00;;;;;;;;;;;19.30;51.50;;;;;;5026529;28;20338;-64
2021/04/21 12:53:32;;;;;;;;;;;19.30;51.40;;;;;;5027265;28;19924;-65
2021/04/21 12:56:04;;;;;;;;;;;19.30;51.20;;;;;;5027004;28;19913;-66
2021/04/21 12:58:35;;;;;;;;;;;19.30;51.20;;;;;;5026770;28;19913;-66
2021/04/21 13:01:11;;;;;;;;;;;19.30;51.10;;;;;;5026470;28;20366;-66
2021/04/21 13:03:37;;;;;;;;;;;19.30;51.00;;;;;;5027109;28;19913;-66
2021/04/21 13:06:02;;;;;;;;;;;19.30;51.10;;;;;;5009085;28;20277;-65
2021/04/21 13:08:28;;;;;;;;;;;19.30;50.80;;;;;;5026770;28;19918;-68
2021/04/21 13:10:54;;;;;;;;;;;19.30;50.60;;;;;;5026867;28;19913;-66
2021/04/21 13:13:20;;;;;;;;;;;19.30;50.70;;;;;;5026302;28;19997;-66
2021/04/21 13:15:46;;;;;;;;;;;19.30;50.70;;;;;;5009682;28;20342;-65
2021/04/21 13:18:11;;;;;;;;;;;19.30;50.70;;;;;;5027223;28;19917;-66
2021/04/21 13:20:47;;;;;;;;;;;19.30;50.80;;;;;;5027701;28;20308;-67
2021/04/21 13:23:23;;;;;;;;;;;19.20;50.60;;;;;;5027965;28;20435;-65
2021/04/21 13:25:52;;;;;;;;;;;19.30;50.80;;;;;;5026755;28;19913;-66
2021/04/21 13:28:18;;;;;;;;;;;19.20;50.60;;;;;;5026598;28;19921;-67
2021/04/21 13:30:44;;;;;;;;;;;19.20;50.50;;;;;;5026723;28;19925;-67
2021/04/21 13:33:09;;;;;;;;;;;19.20;50.90;;;;;;5027296;28;19925;-66
2021/04/21 13:35:34;;;;;;;;;;;19.20;51.40;;;;;;5009339;28;19913;-66
2021/04/21 13:38:00;;;;;;;;;;;19.20;51.60;;;;;;5026648;28;20338;-66
2021/04/21 13:40:25;;;;;;;;;;;19.20;51.70;;;;;;5026114;28;19913;-66
2021/04/21 13:42:53;;;;;;;;;;;19.20;52.10;;;;;;5025869;28;19921;-66
2021/04/21 13:45:19;;;;;;;;;;;19.20;52.20;;;;;;5026588;28;19913;-66
2021/04/21 13:47:45;;;;;;;;;;;19.20;52.30;;;;;;5026206;28;21726;-66
2021/04/21 13:50:11;;;;;;;;;;;19.20;52.30;;;;;;5025350;28;19923;-66
2021/04/21 13:52:36;;;;;;;;;;;19.20;52.20;;;;;;5026919;28;20326;-66
2021/04/21 13:55:03;;;;;;;;;;;19.20;52.30;;;;;;5026754;28;19917;-66
2021/04/21 13:57:28;;;;;;;;;;;19.20;52.20;;;;;;5008589;28;19920;-66
2021/04/21 13:59:53;;;;;;;;;;;19.20;52.40;;;;;;5027728;28;20431;-67
2021/04/21 14:02:19;;;;;;;;;;;19.20;52.40;;;;;;5028829;28;19920;-67
2021/04/21 14:04:44;;;;;;;;;;;19.20;52.50;;;;;;5026216;28;20674;-66
2021/04/21 14:07:10;;;;;;;;;;;19.20;52.40;;;;;;5028955;28;19953;-66
2021/04/21 14:09:35;;;;;;;;;;;19.20;52.30;;;;;;5029524;28;19917;-66
2021/04/21 14:12:01;;;;;;;;;;;19.20;51.50;;;;;;5026347;28;19921;-67
2021/04/21 14:14:27;;;;;;;;;;;19.20;50.80;;;;;;5007497;28;20055;-67
2021/04/21 14:16:52;;;;;;;;;;;19.30;50.10;;;;;;5025211;28;20007;-67
2021/04/21 14:19:18;;;;;;;;;;;19.30;49.50;;;;;;5025965;28;20761;-66
2021/04/21 14:21:43;;;;;;;;;;;19.20;50.00;;;;;;5025653;28;19924;-67
2021/04/21 14:24:09;;;;;;;;;;;19.20;49.90;;;;;;5007700;28;20972;-66
2021/04/21 14:26:34;;;;;;;;;;;19.20;50.00;;;;;;5026139;28;19928;-65